Aérodrome :
LOGIN :

S'inscrire | Disclaimer

   EN    FR    IT 

 










Légende :    VFR   VFR Marginal   IFR   IFR Intensif   IFR Très Intensif
Visi : 
Plafond : 
>= 8 km
>= 3000ft
5 à 8 km
1000 à 3000 ft
1500m à 5 km
500 à 1000 ft
800 à 1500m
200 à 500 ft
< 800m
< 200 ft
Symboles :   Orages  Brouillard  Fortes neiges  Fortes précipitations  Vent > 20 kt
SIGMETs :   Divers  Orages  Givrage  Turbulence  Onde Orograph.  Cendres Volcan.






- Altitude de l'aérodrome : 13 ft
- Code IATA : CEQ


LFMD - Cannes Mandelieu

DERNIER METAR :
  • 281300Z AUTO 16010KT CAVOK 15/01 Q1018 NOSIG

METARs EXPIRÉS :
  • 281230Z AUTO 16009KT 130V190 CAVOK 16/01 Q1018 NOSIG
  • 281200Z AUTO 17008KT 140V210 CAVOK 15/01 Q1018 NOSIG
  • 281130Z AUTO 17007KT 130V200 CAVOK 16/02 Q1018 NOSIG
  • 281100Z AUTO 16006KT 130V190 CAVOK 15/02 Q1018 NOSIG
  • 281030Z AUTO 15007KT 110V190 CAVOK 15/02 Q1018 NOSIG

TAF TAF LFMD
Valide du 28 à 09h jusqu'au 29 à 09h UTC


280800Z 2809/2909 02005KT CAVOK
BECMG 2809/2811 16010KT
BECMG 2817/2819 35005KT
ATIS : +33 4 93 48 73 23



MET'MAP, la Météo Aéronautique d'un coup d'oeil ! - Copyright ORBIFLY Décembre 2007 - Disclaimer

ORBIFLY MET'MAP TEAM :

Programmation & Développement : Alexandra Zaïnal
Sur une idée originale de : Baudouin d'Aumeries
Assistance à la programmation : Marc-Olivier Méhu
Soutien technique & logistique : Manuel Goepfert

Contact : metmap@orbifly.com




SOURCES & CREDITS :

   NOAA